Time;durP1;ratioP1;P1;durP2;ratioP2;P2;SDS_P1;SDS_P2;PMS_P1;PMS_P2;Temp;Humidity;BMP_temperature;BMP_pressure;BME280_temperature;BME280_humidity;BME280_pressure;Samples;Min_cycle;Max_cycle;Signal;HPM_P1;HPM_P2
2023/10/20 00:01:00;;;;;;;11.38;8.93;;;7.70;99.90;;;;;;5030087;28;20060;-66
2023/10/20 00:03:26;;;;;;;12.02;9.02;;;7.70;99.90;;;;;;5021932;28;20577;-64
2023/10/20 00:05:52;;;;;;;12.57;9.15;;;7.70;99.90;;;;;;5045670;28;20033;-64
2023/10/20 00:08:17;;;;;;;14.70;9.07;;;7.70;99.90;;;;;;5026290;28;20593;-65
2023/10/20 00:10:43;;;;;;;12.43;8.63;;;7.70;99.90;;;;;;5026273;28;20503;-64
2023/10/20 00:13:09;;;;;;;14.18;9.13;;;7.70;99.90;;;;;;5023759;28;20034;-64
2023/10/20 00:15:35;;;;;;;13.98;8.90;;;7.70;99.90;;;;;;4993051;28;20041;-64
2023/10/20 00:18:02;;;;;;;12.30;8.32;;;7.70;99.90;;;;;;5045758;28;20511;-65
2023/10/20 00:20:28;;;;;;;12.05;8.70;;;7.70;99.90;;;;;;5005727;28;20120;-64
2023/10/20 00:22:55;;;;;;;13.82;9.05;;;7.80;99.90;;;;;;5026974;28;20123;-65
2023/10/20 00:25:21;;;;;;;14.13;9.35;;;7.70;99.90;;;;;;5038322;28;20492;-64
2023/10/20 00:27:47;;;;;;;12.63;8.57;;;7.70;99.90;;;;;;5026546;28;20048;-65
2023/10/20 00:30:13;;;;;;;12.20;8.38;;;7.70;99.90;;;;;;5027921;28;20087;-64
2023/10/20 00:32:42;;;;;;;13.63;8.82;;;7.70;99.90;;;;;;5038826;28;20450;-64
2023/10/20 00:35:09;;;;;;;13.00;9.27;;;7.70;99.90;;;;;;5026088;28;20037;-65
2023/10/20 00:37:36;;;;;;;15.55;9.32;;;7.70;99.90;;;;;;5042687;28;20047;-64
2023/10/20 00:40:07;;;;;;;13.60;9.10;;;7.80;99.90;;;;;;5036559;28;20045;-64
2023/10/20 00:42:34;;;;;;;14.73;9.07;;;7.80;99.90;;;;;;5025248;28;20041;-65
2023/10/20 00:45:00;;;;;;;13.93;8.77;;;7.70;99.90;;;;;;5026936;28;20044;-66
2023/10/20 00:47:26;;;;;;;12.63;8.45;;;7.70;99.90;;;;;;5026176;28;20092;-65
2023/10/20 00:49:52;;;;;;;15.75;9.10;;;7.70;99.90;;;;;;5035273;28;20032;-64
2023/10/20 00:52:19;;;;;;;14.43;8.30;;;7.70;99.90;;;;;;5016844;28;20071;-65
2023/10/20 00:54:47;;;;;;;14.07;9.05;;;7.80;99.90;;;;;;5009949;28;20041;-65
2023/10/20 00:57:16;;;;;;;12.68;8.38;;;7.70;99.90;;;;;;5045526;28;20041;-65
2023/10/20 00:59:42;;;;;;;16.92;8.77;;;7.80;99.90;;;;;;5033184;28;20033;-65
2023/10/20 01:02:09;;;;;;;13.95;8.75;;;7.80;99.90;;;;;;5026981;28;20059;-65
2023/10/20 01:04:35;;;;;;;12.82;8.70;;;7.70;99.90;;;;;;5044980;28;20480;-65
2023/10/20 01:07:00;;;;;;;14.93;9.82;;;7.80;99.90;;;;;;5025170;28;20447;-65
2023/10/20 01:09:27;;;;;;;14.30;10.10;;;7.70;99.90;;;;;;5023947;28;20135;-66
2023/10/20 01:11:53;;;;;;;14.13;8.93;;;7.70;99.90;;;;;;5018723;28;20071;-64
2023/10/20 01:14:19;;;;;;;16.75;9.98;;;7.80;99.90;;;;;;5024149;28;20502;-64
2023/10/20 01:16:45;;;;;;;19.67;10.27;;;7.70;99.90;;;;;;5024710;28;20400;-65
2023/10/20 01:19:11;;;;;;;16.02;10.40;;;7.70;99.90;;;;;;5025556;28;20045;-65
2023/10/20 01:21:38;;;;;;;17.52;10.80;;;7.70;99.90;;;;;;5019807;28;20040;-63
2023/10/20 01:24:04;;;;;;;16.20;10.63;;;7.70;99.90;;;;;;5036541;28;20048;-64
2023/10/20 01:26:31;;;;;;;20.23;11.20;;;7.80;99.90;;;;;;5035416;28;20055;-64
2023/10/20 01:28:56;;;;;;;20.42;11.70;;;7.70;99.90;;;;;;5026974;28;20424;-65
2023/10/20 01:31:25;;;;;;;22.23;11.27;;;7.80;99.90;;;;;;5019648;28;20116;-65
2023/10/20 01:33:51;;;;;;;18.10;11.63;;;7.80;99.90;;;;;;5035119;28;20041;-65
2023/10/20 01:36:17;;;;;;;19.90;11.68;;;7.80;99.90;;;;;;5042285;28;20056;-64
2023/10/20 01:38:42;;;;;;;18.10;11.75;;;7.80;99.90;;;;;;5041729;28;20080;-65
2023/10/20 01:41:08;;;;;;;21.33;13.02;;;7.80;99.90;;;;;;5017864;28;20060;-64
2023/10/20 01:43:34;;;;;;;24.88;12.90;;;7.80;99.90;;;;;;5022264;28;20094;-64
2023/10/20 01:46:04;;;;;;;22.95;12.07;;;7.70;99.90;;;;;;5040997;28;20068;-64
2023/10/20 01:48:32;;;;;;;22.02;12.68;;;7.80;99.90;;;;;;5041963;28;20587;-65
2023/10/20 01:51:00;;;;;;;21.52;12.43;;;7.80;99.90;;;;;;5041316;28;20067;-64
2023/10/20 01:53:26;;;;;;;21.42;13.25;;;7.80;99.90;;;;;;5024942;28;20049;-65
2023/10/20 01:55:52;;;;;;;21.85;13.20;;;7.80;99.90;;;;;;5025617;28;20045;-65
2023/10/20 01:58:19;;;;;;;25.77;13.43;;;7.80;99.90;;;;;;5006686;28;20076;-64
2023/10/20 02:00:49;;;;;;;22.15;13.07;;;7.80;99.90;;;;;;5036068;28;20170;-64
2023/10/20 02:03:15;;;;;;;25.67;13.68;;;7.80;99.90;;;;;;5037646;28;20072;-64
2023/10/20 02:05:40;;;;;;;23.83;13.90;;;7.80;99.90;;;;;;5019859;28;20064;-65
2023/10/20 02:08:10;;;;;;;24.02;13.65;;;7.80;99.90;;;;;;5043004;28;20044;-64
2023/10/20 02:10:36;;;;;;;24.02;14.57;;;7.80;99.90;;;;;;5032881;28;20055;-65
2023/10/20 02:13:03;;;;;;;29.88;14.40;;;7.80;99.90;;;;;;5025351;28;20049;-65
2023/10/20 02:15:29;;;;;;;30.02;14.63;;;7.80;99.90;;;;;;5041231;28;20044;-64
2023/10/20 02:17:58;;;;;;;27.98;15.00;;;7.80;99.90;;;;;;5019609;28;20593;-65
2023/10/20 02:20:25;;;;;;;29.63;15.02;;;7.80;99.90;;;;;;5022793;28;20067;-64
2023/10/20 02:22:55;;;;;;;28.15;15.50;;;7.80;99.90;;;;;;5025090;28;20040;-64
2023/10/20 02:25:22;;;;;;;25.70;14.70;;;7.80;99.90;;;;;;5025793;28;20041;-64
2023/10/20 02:27:48;;;;;;;27.75;15.00;;;7.80;99.90;;;;;;5043632;28;20155;-65
2023/10/20 02:30:15;;;;;;;28.17;15.57;;;7.80;99.90;;;;;;5042507;28;20041;-65
2023/10/20 02:32:42;;;;;;;29.05;16.42;;;7.80;99.90;;;;;;5041174;28;20166;-64
2023/10/20 02:35:12;;;;;;;27.38;16.08;;;7.70;99.90;;;;;;5034591;28;20040;-65
2023/10/20 02:37:37;;;;;;;26.67;15.43;;;7.70;99.90;;;;;;5032658;28;20119;-65
2023/10/20 02:40:04;;;;;;;28.33;16.52;;;7.70;99.90;;;;;;5025283;28;20080;-65
2023/10/20 02:42:33;;;;;;;31.38;16.45;;;7.70;99.90;;;;;;5026208;28;20068;-65
2023/10/20 02:44:59;;;;;;;33.85;16.73;;;7.80;99.90;;;;;;5016307;28;20443;-64
2023/10/20 02:47:25;;;;;;;30.15;17.27;;;7.70;99.90;;;;;;5041676;28;20072;-65
2023/10/20 02:49:55;;;;;;;29.13;16.45;;;7.70;99.90;;;;;;5022782;28;20073;-65
2023/10/20 02:52:22;;;;;;;29.95;16.30;;;7.70;99.90;;;;;;5007399;28;20052;-65
2023/10/20 02:54:53;;;;;;;30.48;16.85;;;7.70;99.90;;;;;;5018834;28;20037;-64
2023/10/20 02:57:20;;;;;;;33.97;17.20;;;7.70;99.90;;;;;;5026161;28;20111;-65
2023/10/20 02:59:47;;;;;;;31.63;16.80;;;7.70;99.90;;;;;;5018274;28;20041;-65
2023/10/20 03:02:15;;;;;;;30.10;17.15;;;7.70;99.90;;;;;;4997083;28;20120;-65
2023/10/20 03:04:41;;;;;;;31.88;17.27;;;7.70;99.90;;;;;;5021235;28;20033;-65
2023/10/20 03:07:08;;;;;;;33.83;17.80;;;7.70;99.90;;;;;;5020588;28;20052;-65
2023/10/20 03:09:35;;;;;;;30.40;16.90;;;7.70;99.90;;;;;;5009541;28;20324;-65
2023/10/20 03:12:02;;;;;;;32.58;17.70;;;7.70;99.90;;;;;;5013672;28;20055;-65
2023/10/20 03:14:29;;;;;;;33.10;17.42;;;7.70;99.90;;;;;;5035185;28;20057;-64
2023/10/20 03:16:55;;;;;;;31.63;17.00;;;7.60;99.90;;;;;;5023601;28;20510;-65
2023/10/20 03:19:22;;;;;;;42.35;17.85;;;7.60;99.90;;;;;;5019699;28;20040;-64
2023/10/20 03:21:48;;;;;;;29.25;16.85;;;7.60;99.90;;;;;;5024664;28;20128;-65
2023/10/20 03:24:13;;;;;;;28.80;16.33;;;7.60;99.90;;;;;;5015154;28;20029;-64
2023/10/20 03:26:39;;;;;;;30.80;16.95;;;7.60;99.90;;;;;;5032463;28;20048;-65
2023/10/20 03:29:05;;;;;;;32.67;17.48;;;7.60;99.90;;;;;;5027827;28;20041;-65
2023/10/20 03:31:32;;;;;;;30.13;17.00;;;7.60;99.90;;;;;;5035405;28;20128;-65
2023/10/20 03:33:58;;;;;;;30.50;16.83;;;7.60;99.90;;;;;;4995845;28;20044;-65
2023/10/20 03:36:24;;;;;;;30.13;17.38;;;7.60;99.90;;;;;;5021959;28;20086;-65
2023/10/20 03:38:49;;;;;;;29.33;16.95;;;7.60;99.90;;;;;;5037128;28;20040;-65
2023/10/20 03:41:15;;;;;;;28.35;16.23;;;7.60;99.90;;;;;;5037983;28;20075;-65
2023/10/20 03:43:41;;;;;;;28.45;15.90;;;7.60;99.90;;;;;;5010212;28;20037;-64
2023/10/20 03:46:07;;;;;;;30.65;17.20;;;7.60;99.90;;;;;;5020601;28;20036;-65
2023/10/20 03:48:35;;;;;;;30.95;15.82;;;7.60;99.90;;;;;;5040544;28;20102;-65
2023/10/20 03:51:05;;;;;;;27.80;15.98;;;7.50;99.90;;;;;;5040160;28;20037;-65
2023/10/20 03:53:41;;;;;;;30.25;15.85;;;7.50;99.90;;;;;;5031798;28;20045;-64
2023/10/20 03:56:08;;;;;;;27.58;15.07;;;7.60;99.90;;;;;;5026087;28;20049;-65
2023/10/20 03:58:35;;;;;;;26.60;15.75;;;7.50;99.90;;;;;;5011554;28;20060;-66
2023/10/20 04:01:02;;;;;;;25.15;15.10;;;7.60;99.90;;;;;;5041649;28;20055;-64
2023/10/20 04:03:31;;;;;;;24.20;14.95;;;7.60;99.90;;;;;;5037153;28;20396;-64
2023/10/20 04:05:57;;;;;;;23.58;14.60;;;7.60;99.90;;;;;;5036320;28;20051;-64
2023/10/20 04:08:24;;;;;;;24.38;14.63;;;7.60;99.90;;;;;;5017774;28;20125;-65
2023/10/20 04:10:59;;;;;;;30.63;15.13;;;7.50;99.90;;;;;;5035621;28;20072;-65
2023/10/20 04:13:26;;;;;;;21.45;13.48;;;7.60;99.90;;;;;;5025880;28;21247;-64
2023/10/20 04:15:54;;;;;;;21.65;13.63;;;7.60;99.90;;;;;;5029150;28;20045;-65
2023/10/20 04:18:22;;;;;;;20.45;13.15;;;7.60;99.90;;;;;;5024582;28;20033;-65
2023/10/20 04:20:48;;;;;;;20.75;12.65;;;7.60;99.90;;;;;;5024086;28;20570;-65
2023/10/20 04:23:16;;;;;;;20.75;13.23;;;7.60;99.90;;;;;;5010426;28;20415;-65
2023/10/20 04:25:55;;;;;;;20.80;12.88;;;7.60;99.90;;;;;;5024575;28;20069;-65
2023/10/20 04:28:29;;;;;;;18.17;12.13;;;7.60;99.90;;;;;;5026113;28;20450;-64
2023/10/20 04:52:55;;;;;;;16.02;10.07;;;7.60;99.90;;;;;;5013119;28;20155;-65
2023/10/20 04:57:57;;;;;;;14.43;10.10;;;7.60;99.90;;;;;;5027120;28;20049;-65
2023/10/20 05:00:32;;;;;;;14.30;9.60;;;7.60;99.90;;;;;;5036325;28;20053;-65
2023/10/20 05:10:37;;;;;;;12.00;8.27;;;7.60;99.90;;;;;;5021801;28;20442;-65
2023/10/20 05:13:03;;;;;;;11.73;8.10;;;7.60;99.90;;;;;;5007606;28;20037;-65
2023/10/20 05:15:38;;;;;;;11.02;8.18;;;7.60;99.90;;;;;;5024154;28;20521;-65
2023/10/20 05:18:11;;;;;;;13.32;7.68;;;7.60;99.90;;;;;;5035587;28;20041;-65
2023/10/20 05:20:38;;;;;;;11.13;8.10;;;7.60;99.90;;;;;;5025787;28;20121;-64
2023/10/20 05:23:04;;;;;;;10.80;7.45;;;7.60;99.90;;;;;;5005289;28;20044;-64
2023/10/20 05:25:30;;;;;;;13.70;7.68;;;7.70;99.90;;;;;;5018657;28;20546;-65
2023/10/20 05:27:55;;;;;;;10.90;7.30;;;7.70;99.90;;;;;;5022689;28;20042;-65
2023/10/20 05:30:21;;;;;;;10.82;7.43;;;7.70;99.90;;;;;;5022572;28;20041;-65
2023/10/20 05:32:48;;;;;;;12.85;7.00;;;7.70;99.90;;;;;;5006364;28;20045;-64
2023/10/20 05:35:13;;;;;;;9.20;6.60;;;7.70;99.90;;;;;;5017929;28;20537;-65
2023/10/20 05:37:39;;;;;;;10.38;6.90;;;7.70;99.90;;;;;;5020543;28;20106;-64
2023/10/20 05:40:05;;;;;;;9.75;6.60;;;7.70;99.90;;;;;;5024394;28;20057;-64
2023/10/20 05:42:34;;;;;;;10.73;6.35;;;7.70;99.90;;;;;;5032531;28;20104;-64
2023/10/20 05:45:17;;;;;;;11.27;6.88;;;7.70;99.90;;;;;;5007577;28;20089;-65
2023/10/20 05:47:44;;;;;;;11.57;6.40;;;7.70;99.90;;;;;;5009438;28;20040;-65
2023/10/20 05:50:10;;;;;;;8.35;6.00;;;7.70;99.90;;;;;;5017687;28;20126;-65
2023/10/20 05:52:35;;;;;;;9.38;6.38;;;7.70;99.90;;;;;;5013335;28;20342;-64
2023/10/20 05:55:03;;;;;;;8.85;6.13;;;7.70;99.90;;;;;;5022722;28;20044;-65
2023/10/20 05:57:29;;;;;;;9.07;5.70;;;7.70;99.90;;;;;;5028785;28;20604;-65
2023/10/20 05:59:55;;;;;;;10.75;5.22;;;7.70;99.90;;;;;;5024725;28;20056;-65
2023/10/20 06:02:21;;;;;;;7.05;5.47;;;7.70;99.90;;;;;;5030246;28;20037;-65
2023/10/20 06:04:47;;;;;;;6.53;4.63;;;7.70;99.90;;;;;;5003007;28;21395;-65
2023/10/20 06:07:12;;;;;;;6.97;4.88;;;7.70;99.90;;;;;;5014959;28;20484;-63
2023/10/20 06:09:39;;;;;;;6.85;5.00;;;7.80;99.90;;;;;;5016815;28;20102;-65
2023/10/20 06:12:07;;;;;;;8.13;4.45;;;7.70;99.90;;;;;;5032725;28;20583;-65
2023/10/20 06:14:36;;;;;;;7.35;4.35;;;7.80;99.90;;;;;;5040448;28;20044;-65
2023/10/20 06:17:01;;;;;;;5.22;3.55;;;7.70;99.90;;;;;;5019408;28;20033;-65
2023/10/20 06:19:28;;;;;;;6.53;4.10;;;7.70;99.90;;;;;;5025488;28;20586;-64
2023/10/20 06:21:55;;;;;;;5.32;3.83;;;7.70;99.90;;;;;;5026025;28;20422;-66
2023/10/20 06:24:21;;;;;;;6.20;3.78;;;7.70;99.90;;;;;;5024139;28;20119;-65
2023/10/20 06:26:47;;;;;;;5.65;3.10;;;7.70;99.90;;;;;;4988098;28;20136;-63
2023/10/20 06:30:06;;;;;;;5.45;3.70;;;7.70;99.90;;;;;;5011994;28;20399;-65
2023/10/20 06:34:46;;;;;;;5.78;3.53;;;7.70;99.90;;;;;;5034888;28;20088;-65
2023/10/20 06:37:36;;;;;;;6.13;4.18;;;7.70;99.90;;;;;;5015467;28;20450;-66
2023/10/20 06:40:00;;;;;;;4.93;3.67;;;7.70;99.90;;;;;;5016114;28;20106;-64
2023/10/20 06:42:25;;;;;;;6.40;3.40;;;7.70;99.90;;;;;;5027111;28;20530;-65
2023/10/20 06:44:51;;;;;;;5.05;3.80;;;7.70;99.90;;;;;;5028330;28;20450;-65
2023/10/20 06:47:18;;;;;;;6.15;3.70;;;7.70;99.90;;;;;;5030877;28;20052;-65
2023/10/20 06:49:44;;;;;;;5.75;3.70;;;7.70;99.90;;;;;;4986212;28;20766;-64
2023/10/20 06:52:10;;;;;;;4.78;3.78;;;7.60;99.90;;;;;;5030111;28;20037;-64
2023/10/20 06:54:36;;;;;;;5.43;3.72;;;7.60;99.90;;;;;;5007503;28;20144;-64
2023/10/20 06:57:02;;;;;;;5.63;4.00;;;7.60;99.90;;;;;;5020717;28;20053;-64
2023/10/20 06:59:27;;;;;;;6.28;3.60;;;7.60;99.90;;;;;;5033208;28;20403;-65
2023/10/20 07:01:59;;;;;;;6.53;3.80;;;7.60;99.90;;;;;;5013080;28;20457;-64
2023/10/20 07:04:26;;;;;;;6.22;3.70;;;7.60;99.90;;;;;;5016896;28;20426;-65
2023/10/20 07:06:52;;;;;;;5.13;3.55;;;7.60;99.90;;;;;;5034749;28;20052;-64
2023/10/20 07:09:18;;;;;;;5.45;3.65;;;7.60;99.90;;;;;;5035149;28;20049;-64
2023/10/20 07:11:44;;;;;;;4.68;3.72;;;7.60;99.90;;;;;;5034761;28;20372;-65
2023/10/20 07:14:10;;;;;;;5.05;3.65;;;7.60;99.90;;;;;;5018609;28;20506;-65
2023/10/20 07:16:36;;;;;;;4.53;3.55;;;7.60;99.90;;;;;;5017420;28;20045;-65
2023/10/20 07:19:02;;;;;;;4.85;3.53;;;7.50;99.90;;;;;;5007570;28;20045;-64
2023/10/20 07:21:29;;;;;;;5.72;3.60;;;7.50;99.90;;;;;;5022223;28;21042;-65
2023/10/20 07:23:57;;;;;;;5.43;3.50;;;7.50;99.90;;;;;;5015420;28;20045;-65
2023/10/20 07:26:24;;;;;;;4.35;3.47;;;7.50;99.90;;;;;;5023209;28;20036;-63
2023/10/20 07:28:50;;;;;;;4.18;3.25;;;7.50;99.90;;;;;;5011762;28;20094;-65
2023/10/20 07:31:21;;;;;;;5.00;3.20;;;7.50;99.90;;;;;;5019657;28;20064;-65
2023/10/20 07:33:50;;;;;;;4.32;3.10;;;7.50;99.90;;;;;;5018386;28;20040;-64
2023/10/20 07:36:16;;;;;;;3.72;2.97;;;7.50;99.90;;;;;;4990744;28;20057;-65
2023/10/20 07:38:45;;;;;;;4.13;3.20;;;7.50;99.90;;;;;;5033807;28;20041;-64
2023/10/20 07:41:12;;;;;;;4.68;3.58;;;7.50;99.90;;;;;;5002349;28;20052;-64
2023/10/20 07:43:39;;;;;;;5.50;3.35;;;7.50;99.90;;;;;;5017205;28;20135;-64
2023/10/20 07:46:05;;;;;;;6.70;3.28;;;7.40;99.90;;;;;;5013160;28;20080;-65
2023/10/20 07:48:32;;;;;;;4.60;3.50;;;7.40;99.90;;;;;;5031547;28;20123;-65
2023/10/20 07:51:01;;;;;;;4.53;3.63;;;7.40;99.90;;;;;;5011635;28;20051;-65
2023/10/20 07:53:29;;;;;;;4.60;3.63;;;7.40;99.90;;;;;;5019120;28;21059;-65
2023/10/20 07:55:55;;;;;;;5.70;3.47;;;7.40;99.90;;;;;;5034743;28;20048;-65
2023/10/20 07:58:21;;;;;;;4.70;3.80;;;7.40;99.90;;;;;;5010489;28;20052;-65
2023/10/20 08:00:47;;;;;;;4.85;3.63;;;7.30;99.90;;;;;;5010275;28;20041;-65
2023/10/20 08:03:13;;;;;;;4.90;3.85;;;7.30;99.90;;;;;;5015709;28;20337;-65
2023/10/20 08:05:40;;;;;;;5.68;4.00;;;7.30;99.90;;;;;;4997252;28;20045;-65
2023/10/20 08:08:06;;;;;;;6.43;4.00;;;7.20;99.90;;;;;;5015622;28;20102;-64
2023/10/20 08:10:32;;;;;;;4.35;3.78;;;7.30;99.90;;;;;;5015665;28;20044;-64
2023/10/20 08:12:59;;;;;;;6.03;3.60;;;7.30;99.90;;;;;;5034152;28;20080;-64
2023/10/20 08:15:28;;;;;;;6.07;3.55;;;7.30;99.90;;;;;;5015635;28;20053;-65
2023/10/20 08:17:54;;;;;;;5.57;3.80;;;7.20;99.90;;;;;;5014959;28;20055;-65
2023/10/20 08:20:20;;;;;;;5.10;3.50;;;7.20;99.90;;;;;;5016705;28;20128;-64
2023/10/20 08:22:46;;;;;;;4.95;3.45;;;7.20;99.90;;;;;;5032443;28;20048;-65
2023/10/20 08:25:13;;;;;;;5.65;3.47;;;7.30;99.90;;;;;;5018490;28;20041;-66
2023/10/20 08:27:39;;;;;;;4.80;3.47;;;7.30;99.90;;;;;;5018299;28;20380;-65
2023/10/20 08:30:05;;;;;;;6.60;3.58;;;7.20;99.90;;;;;;5017778;28;20536;-64
2023/10/20 08:32:31;;;;;;;6.65;3.10;;;7.20;99.90;;;;;;5003068;28;20060;-64
2023/10/20 08:34:58;;;;;;;3.85;2.83;;;7.20;99.90;;;;;;5016740;28;20052;-65
2023/10/20 08:37:25;;;;;;;6.50;2.90;;;7.20;99.90;;;;;;5024976;28;20058;-64
2023/10/20 08:39:50;;;;;;;5.93;3.25;;;7.20;99.90;;;;;;5026038;28;20115;-64
2023/10/20 08:42:17;;;;;;;5.30;2.70;;;7.20;99.90;;;;;;5018208;28;24183;-65
2023/10/20 08:44:44;;;;;;;4.00;2.95;;;7.20;99.90;;;;;;5013861;28;20049;-65
2023/10/20 08:47:14;;;;;;;4.72;2.65;;;7.20;99.90;;;;;;5015348;28;20045;-64
2023/10/20 08:49:40;;;;;;;4.93;2.60;;;7.20;99.90;;;;;;5034403;28;20071;-65
2023/10/20 08:52:10;;;;;;;4.82;2.67;;;7.20;99.90;;;;;;5016872;28;20510;-64
2023/10/20 08:54:36;;;;;;;4.20;2.38;;;7.20;99.90;;;;;;5014726;28;20399;-65
2023/10/20 08:57:02;;;;;;;5.15;2.55;;;7.20;99.90;;;;;;5019938;28;20220;-65
2023/10/20 08:59:28;;;;;;;4.65;2.47;;;7.20;99.90;;;;;;5032204;28;20120;-65
2023/10/20 09:01:54;;;;;;;4.15;2.45;;;7.10;99.90;;;;;;5005393;28;20098;-65
2023/10/20 09:04:25;;;;;;;5.00;2.90;;;7.20;99.90;;;;;;5032720;28;20111;-65
2023/10/20 09:06:52;;;;;;;3.53;2.35;;;7.10;99.90;;;;;;5030973;28;20612;-63
2023/10/20 09:09:19;;;;;;;3.88;2.33;;;7.10;99.90;;;;;;5015125;28;20107;-65
2023/10/20 09:11:45;;;;;;;3.58;2.50;;;7.10;99.90;;;;;;5019439;28;20092;-65
2023/10/20 09:14:14;;;;;;;4.43;2.28;;;7.10;99.90;;;;;;5034830;28;20034;-65
2023/10/20 09:16:41;;;;;;;3.55;2.40;;;7.10;99.90;;;;;;5018575;28;20051;-64
2023/10/20 09:19:11;;;;;;;3.83;1.90;;;7.10;99.90;;;;;;5016242;28;20041;-66
2023/10/20 09:21:40;;;;;;;2.95;2.08;;;7.10;99.90;;;;;;5014303;28;20041;-65
2023/10/20 09:24:08;;;;;;;2.75;1.77;;;7.10;99.90;;;;;;5014747;28;20074;-65
2023/10/20 09:26:36;;;;;;;1.95;1.70;;;7.10;99.90;;;;;;5032148;28;20041;-64
2023/10/20 09:29:05;;;;;;;2.60;1.90;;;7.10;99.90;;;;;;5000918;28;20052;-64
2023/10/20 09:31:31;;;;;;;3.95;2.00;;;7.10;99.90;;;;;;5014918;28;20048;-64
2023/10/20 09:33:58;;;;;;;4.05;1.88;;;7.10;99.90;;;;;;5031416;28;20053;-65
2023/10/20 09:36:25;;;;;;;2.88;1.70;;;7.10;99.90;;;;;;5019951;28;20044;-65
2023/10/20 09:38:55;;;;;;;3.30;1.70;;;7.00;99.90;;;;;;5010617;28;20053;-65
2023/10/20 09:41:29;;;;;;;2.47;1.60;;;7.10;99.90;;;;;;5019534;28;20045;-65
2023/10/20 09:44:02;;;;;;;2.83;1.80;;;7.00;99.90;;;;;;5042176;28;20052;-65
2023/10/20 09:47:03;;;;;;;2.70;1.88;;;7.00;99.90;;;;;;5021204;28;20507;-64
2023/10/20 09:49:31;;;;;;;2.75;1.75;;;7.00;99.90;;;;;;5034365;28;20048;-65
2023/10/20 09:51:57;;;;;;;2.47;1.70;;;7.00;99.90;;;;;;5005253;28;20071;-65
2023/10/20 09:54:27;;;;;;;2.53;1.63;;;7.00;99.90;;;;;;5021004;28;20056;-65
2023/10/20 09:56:54;;;;;;;2.63;1.85;;;7.00;99.90;;;;;;5037516;28;20037;-65
2023/10/20 09:59:23;;;;;;;1.92;1.45;;;7.00;99.90;;;;;;5038632;28;21388;-65
2023/10/20 10:01:52;;;;;;;2.28;1.60;;;7.00;99.90;;;;;;5036480;28;20103;-65
2023/10/20 10:04:29;;;;;;;3.05;1.77;;;6.90;99.90;;;;;;5012100;28;20136;-65
2023/10/20 10:06:55;;;;;;;2.72;1.70;;;7.00;99.90;;;;;;5033269;28;20483;-65
2023/10/20 10:09:22;;;;;;;2.90;1.85;;;7.00;99.90;;;;;;4998774;28;20045;-65
2023/10/20 10:11:49;;;;;;;2.88;1.50;;;6.90;99.90;;;;;;5015317;28;21031;-65
2023/10/20 10:14:19;;;;;;;1.55;1.45;;;6.90;99.90;;;;;;5015731;28;20041;-65
2023/10/20 10:17:01;;;;;;;3.47;1.50;;;6.90;99.90;;;;;;5014754;28;20056;-65
2023/10/20 10:19:28;;;;;;;3.83;2.10;;;6.90;99.90;;;;;;5009654;28;20523;-65
2023/10/20 10:21:57;;;;;;;2.28;1.30;;;6.90;99.90;;;;;;5020805;28;20072;-64
2023/10/20 10:24:26;;;;;;;2.55;1.67;;;6.90;99.90;;;;;;5021719;28;20068;-65
2023/10/20 10:26:52;;;;;;;2.72;1.55;;;6.90;99.90;;;;;;5035328;28;20420;-65
2023/10/20 10:29:18;;;;;;;3.58;1.55;;;6.90;99.90;;;;;;5026560;28;20067;-64
2023/10/20 10:31:44;;;;;;;1.80;1.23;;;6.90;99.90;;;;;;5036619;28;20068;-65
2023/10/20 10:34:10;;;;;;;1.92;1.45;;;6.90;99.90;;;;;;5025357;28;20025;-64
2023/10/20 10:36:46;;;;;;;1.67;1.42;;;6.90;99.90;;;;;;5029311;28;20048;-65
2023/10/20 10:39:28;;;;;;;2.38;1.45;;;6.90;99.90;;;;;;4996750;28;22026;-64
2023/10/20 10:42:02;;;;;;;1.40;1.23;;;6.90;99.90;;;;;;5013078;28;20510;-65
2023/10/20 10:44:45;;;;;;;1.92;1.30;;;6.90;99.90;;;;;;5012393;28;20037;-64
2023/10/20 10:47:22;;;;;;;1.83;1.40;;;6.90;99.90;;;;;;5016458;28;20144;-66
2023/10/20 10:49:49;;;;;;;3.13;1.30;;;6.90;99.90;;;;;;5016889;28;20483;-64
2023/10/20 10:52:16;;;;;;;2.25;1.35;;;6.90;99.90;;;;;;5013150;28;20052;-64
2023/10/20 10:54:42;;;;;;;2.45;1.38;;;6.90;99.90;;;;;;5029719;28;20048;-65
2023/10/20 10:57:09;;;;;;;1.20;1.10;;;6.90;99.90;;;;;;5001702;28;20506;-65
2023/10/20 10:59:35;;;;;;;2.58;1.45;;;6.90;99.90;;;;;;5013726;28;20054;-65
2023/10/20 11:02:03;;;;;;;1.25;1.10;;;6.90;99.90;;;;;;5030507;28;20049;-64
2023/10/20 11:04:29;;;;;;;1.40;1.20;;;6.90;99.90;;;;;;4998931;28;20049;-65
2023/10/20 11:06:55;;;;;;;1.20;1.10;;;6.90;99.90;;;;;;5018330;28;20052;-65
2023/10/20 11:09:26;;;;;;;1.63;1.10;;;6.90;99.90;;;;;;5020637;28;20041;-64
2023/10/20 11:11:52;;;;;;;1.35;1.15;;;6.90;99.90;;;;;;5030738;28;20045;-64
2023/10/20 11:14:19;;;;;;;1.95;1.10;;;6.80;99.90;;;;;;5024714;28;20041;-65
2023/10/20 11:16:45;;;;;;;2.38;1.50;;;6.80;99.90;;;;;;5022018;28;20068;-65
2023/10/20 11:19:12;;;;;;;2.22;1.23;;;6.80;99.90;;;;;;5017415;28;20048;-64
2023/10/20 11:21:47;;;;;;;1.83;1.25;;;6.80;99.90;;;;;;5020494;28;20041;-65
2023/10/20 11:24:28;;;;;;;2.33;1.25;;;6.80;99.90;;;;;;5029502;28;20049;-66
2023/10/20 11:27:01;;;;;;;1.30;1.15;;;6.80;99.90;;;;;;5020978;28;20088;-64
2023/10/20 11:29:31;;;;;;;1.58;1.25;;;6.80;99.90;;;;;;5012983;28;20053;-64
2023/10/20 11:31:59;;;;;;;1.60;1.20;;;6.70;99.90;;;;;;5032691;28;20080;-65
2023/10/20 11:34:25;;;;;;;2.15;1.15;;;6.70;99.90;;;;;;5024626;28;20391;-66
2023/10/20 11:36:51;;;;;;;3.17;1.30;;;6.70;99.90;;;;;;5004194;28;20044;-65
2023/10/20 11:39:17;;;;;;;1.20;1.02;;;6.70;99.90;;;;;;5024531;28;20065;-66
2023/10/20 11:41:43;;;;;;;3.78;1.40;;;6.70;99.90;;;;;;5011274;28;20042;-63
2023/10/20 11:44:09;;;;;;;5.40;3.40;;;6.70;99.90;;;;;;5012689;28;20107;-65
2023/10/20 11:46:35;;;;;;;2.03;1.60;;;6.70;99.90;;;;;;5012455;28;20524;-65
2023/10/20 11:49:00;;;;;;;3.45;2.08;;;6.70;99.90;;;;;;5024072;28;20096;-64
2023/10/20 11:51:26;;;;;;;8.63;4.82;;;6.80;99.90;;;;;;5026601;28;21450;-65
2023/10/20 11:53:52;;;;;;;3.83;2.50;;;6.80;99.90;;;;;;4996440;28;20232;-65
2023/10/20 11:56:18;;;;;;;1.92;1.73;;;6.70;99.90;;;;;;4993143;28;20054;-64
2023/10/20 11:58:44;;;;;;;1.73;1.40;;;6.80;99.90;;;;;;5009331;28;20053;-65
2023/10/20 12:01:11;;;;;;;5.43;3.38;;;6.80;99.90;;;;;;5019107;28;20044;-64
2023/10/20 12:03:37;;;;;;;5.30;2.60;;;6.80;99.90;;;;;;5021740;28;20053;-64
2023/10/20 12:06:03;;;;;;;4.40;2.53;;;6.80;99.90;;;;;;5033824;28;20051;-64
2023/10/20 12:08:29;;;;;;;5.75;3.08;;;6.80;99.90;;;;;;5018888;28;20045;-64
2023/10/20 12:10:56;;;;;;;86.35;41.60;;;6.80;99.90;;;;;;5030703;28;20053;-64
2023/10/20 12:13:23;;;;;;;29.90;13.15;;;6.80;99.90;;;;;;5025069;28;20053;-64
2023/10/20 12:15:49;;;;;;;2.92;1.50;;;6.80;99.90;;;;;;5029623;28;20056;-65
2023/10/20 12:18:15;;;;;;;3.60;2.53;;;6.80;99.90;;;;;;4998408;28;20052;-65
2023/10/20 12:20:41;;;;;;;2.17;1.65;;;6.80;99.90;;;;;;5015289;28;20033;-65
2023/10/20 12:23:07;;;;;;;1.63;1.08;;;6.80;99.90;;;;;;5002890;28;20043;-65
2023/10/20 12:25:33;;;;;;;2.08;1.35;;;6.80;99.90;;;;;;5016976;28;20041;-64
2023/10/20 12:28:00;;;;;;;2.63;1.20;;;6.80;99.90;;;;;;4995818;28;20107;-66
2023/10/20 12:30:27;;;;;;;3.20;1.83;;;6.80;99.90;;;;;;5016685;28;20052;-65
2023/10/20 12:32:53;;;;;;;1.45;1.35;;;6.80;99.90;;;;;;4978718;28;20508;-64
2023/10/20 12:35:19;;;;;;;2.22;2.03;;;6.80;99.90;;;;;;5010825;28;20653;-65
2023/10/20 12:37:46;;;;;;;2.55;1.65;;;6.80;99.90;;;;;;4998489;28;20409;-64
2023/10/20 12:40:13;;;;;;;1.83;1.10;;;6.80;99.90;;;;;;5002026;28;20054;-65
2023/10/20 12:42:40;;;;;;;1.10;1.00;;;6.80;99.90;;;;;;4993015;28;20628;-64
2023/10/20 12:45:09;;;;;;;1.20;1.10;;;6.80;99.90;;;;;;5012763;28;20037;-65
2023/10/20 12:47:38;;;;;;;1.50;1.00;;;6.80;99.90;;;;;;5016561;28;20442;-65
2023/10/20 12:50:06;;;;;;;1.48;0.90;;;6.80;99.90;;;;;;4998285;28;20038;-65
2023/10/20 12:52:32;;;;;;;1.45;1.15;;;6.80;99.90;;;;;;5000317;28;20108;-66
2023/10/20 12:54:58;;;;;;;1.73;1.40;;;6.90;99.90;;;;;;4998599;28;20124;-66
2023/10/20 12:57:23;;;;;;;4.50;1.15;;;6.80;99.90;;;;;;4998201;28;20480;-66
2023/10/20 12:59:50;;;;;;;1.40;1.08;;;6.80;99.90;;;;;;4991802;28;20105;-65
2023/10/20 13:02:16;;;;;;;1.10;1.00;;;6.80;99.90;;;;;;4980158;28;20042;-65
2023/10/20 13:04:41;;;;;;;1.23;0.98;;;6.80;99.90;;;;;;5014795;28;20045;-65
2023/10/20 13:07:07;;;;;;;1.20;1.10;;;6.80;99.90;;;;;;5013105;28;20052;-66
2023/10/20 13:09:33;;;;;;;1.52;1.00;;;6.80;99.90;;;;;;4972089;28;20041;-65
2023/10/20 13:11:59;;;;;;;2.75;1.00;;;6.80;99.90;;;;;;4997111;28;20270;-63
2023/10/20 13:14:25;;;;;;;1.10;1.00;;;6.80;99.90;;;;;;5000559;28;20592;-65
2023/10/20 13:16:51;;;;;;;2.42;1.20;;;6.80;99.90;;;;;;4998001;28;20041;-66
2023/10/20 13:19:18;;;;;;;2.17;1.00;;;6.80;99.90;;;;;;4995513;28;20056;-66
2023/10/20 13:21:43;;;;;;;1.38;1.00;;;6.80;99.90;;;;;;5009670;28;20416;-65
2023/10/20 13:24:09;;;;;;;1.30;0.95;;;6.80;99.90;;;;;;5010876;28;20050;-64
2023/10/20 13:26:35;;;;;;;1.10;0.80;;;6.80;99.90;;;;;;5029200;28;20045;-64